createdAt,value
2022-08-20T00:00:14.313Z,65.39
2022-08-20T00:01:11.038Z,65.70
2022-08-20T00:02:11.138Z,67.94
2022-08-20T00:03:17.970Z,69.70
2022-08-20T00:04:14.846Z,71.59
2022-08-20T00:05:13.542Z,72.30
2022-08-20T00:06:16.249Z,70.07
2022-08-20T00:07:14.602Z,68.49
2022-08-20T00:08:12.085Z,68.05
2022-08-20T00:09:08.963Z,67.12
2022-08-20T00:10:07.348Z,66.29
2022-08-20T00:11:09.011Z,68.82
2022-08-20T00:12:06.662Z,71.82
2022-08-20T00:13:07.763Z,72.89
2022-08-20T00:14:06.141Z,73.41
2022-08-20T00:15:05.881Z,72.07
2022-08-20T00:16:03.614Z,72.02
2022-08-20T00:17:00.386Z,73.12
2022-08-20T00:17:58.745Z,74.31
2022-08-20T00:18:55.569Z,74.63
2022-08-20T00:19:54.532Z,75.91
2022-08-20T00:20:53.579Z,76.97
2022-08-20T00:21:50.410Z,77.36
2022-08-20T00:22:56.930Z,75.92
2022-08-20T00:23:56.497Z,75.93
2022-08-20T00:24:53.323Z,75.01
2022-08-20T00:25:51.681Z,76.23
2022-08-20T00:26:52.414Z,76.92
2022-08-20T00:27:49.585Z,74.90
2022-08-20T00:28:46.969Z,72.87
2022-08-20T00:29:43.775Z,74.49
2022-08-20T00:30:43.042Z,73.81
2022-08-20T00:31:39.847Z,75.17
2022-08-20T00:32:45.986Z,74.81
2022-08-20T00:33:42.952Z,74.54
2022-08-20T00:34:39.703Z,74.44
2022-08-20T00:35:41.701Z,73.39
2022-08-20T00:36:38.602Z,73.21
2022-08-20T00:37:35.369Z,72.42
2022-08-20T00:38:35.587Z,77.34
2022-08-20T00:39:32.426Z,74.79
2022-08-20T00:40:37.399Z,75.29
2022-08-20T00:41:34.213Z,70.24
2022-08-20T00:42:31.062Z,76.77
2022-08-20T00:43:49.730Z,75.04
2022-08-20T00:44:47.598Z,75.41
2022-08-20T00:45:44.411Z,73.84
2022-08-20T00:46:46.333Z,74.38
2022-08-20T00:47:51.123Z,73.89
2022-08-20T00:48:53.606Z,72.99
2022-08-20T00:49:50.358Z,71.53
2022-08-20T00:50:48.065Z,73.07
2022-08-20T00:52:03.624Z,76.87
2022-08-20T00:53:05.546Z,79.53
2022-08-20T00:54:09.706Z,76.78
2022-08-20T00:55:07.213Z,79.23
2022-08-20T00:56:06.722Z,80.10
2022-08-20T00:57:15.134Z,76.21
2022-08-20T00:58:12.417Z,79.08
2022-08-20T00:59:15.016Z,87.39
2022-08-20T01:00:21.111Z,86.17
2022-08-20T01:01:19.727Z,82.30
2022-08-20T01:02:17.816Z,84.36
2022-08-20T01:03:17.777Z,81.10
2022-08-20T01:04:14.668Z,78.33
2022-08-20T01:05:12.506Z,77.32
2022-08-20T01:06:11.771Z,77.10
2022-08-20T01:07:08.561Z,75.52
2022-08-20T01:08:05.728Z,77.71
2022-08-20T01:09:02.503Z,79.02
2022-08-20T01:10:02.218Z,77.07
2022-08-20T01:11:25.419Z,78.14
2022-08-20T01:12:23.668Z,73.05
2022-08-20T01:13:24.279Z,76.00
2022-08-20T01:14:33.677Z,79.72
2022-08-20T01:15:31.933Z,87.45
2022-08-20T01:16:31.979Z,84.28
2022-08-20T01:18:31.215Z,87.50
2022-08-20T01:19:39.281Z,84.88
2022-08-20T01:20:45.814Z,87.79
2022-08-20T01:21:46.858Z,87.68
2022-08-20T01:23:24.230Z,94.02
2022-08-20T01:24:32.119Z,88.54
2022-08-20T01:25:42.958Z,84.08
2022-08-20T01:26:44.514Z,82.66
2022-08-20T01:27:43.022Z,82.98
2022-08-20T01:28:56.626Z,81.14
2022-08-20T01:29:54.548Z,80.65
2022-08-20T01:30:52.129Z,79.51
2022-08-20T01:31:49.471Z,74.72
2022-08-20T01:32:46.237Z,79.42
2022-08-20T01:33:44.210Z,83.73
2022-08-20T01:34:43.314Z,84.66
2022-08-20T01:35:41.871Z,83.24
2022-08-20T01:36:45.968Z,77.53
2022-08-20T01:37:43.181Z,81.14
2022-08-20T01:38:40.780Z,88.95
2022-08-20T01:39:50.002Z,84.62
2022-08-20T01:41:28.253Z,81.61
2022-08-20T01:42:51.107Z,80.19
2022-08-20T01:43:57.125Z,75.24
2022-08-20T01:44:55.349Z,84.69
2022-08-20T01:45:53.600Z,83.41
2022-08-20T01:46:55.642Z,81.53
2022-08-20T01:47:54.815Z,80.68
2022-08-20T01:48:54.612Z,84.17
2022-08-20T01:49:56.877Z,81.62
2022-08-20T01:51:10.998Z,81.81
2022-08-20T01:52:09.640Z,79.41
2022-08-20T01:53:17.690Z,83.96
2022-08-20T01:54:14.473Z,82.13
2022-08-20T01:55:11.316Z,80.93
2022-08-20T01:56:11.010Z,77.91
2022-08-20T01:57:17.301Z,82.02
2022-08-20T01:58:14.498Z,76.96
2022-08-20T01:59:11.237Z,80.84
2022-08-20T02:00:20.163Z,76.62
2022-08-20T02:01:23.898Z,82.24
2022-08-20T02:02:22.139Z,81.32
2022-08-20T02:03:21.163Z,82.27
2022-08-20T02:04:18.317Z,81.47
2022-08-20T02:05:15.414Z,80.89
2022-08-20T02:06:12.157Z,82.75
2022-08-20T02:07:19.813Z,83.91
2022-08-20T02:08:16.588Z,84.98
2022-08-20T02:09:16.178Z,89.35
2022-08-20T02:10:17.212Z,91.72
2022-08-20T02:11:14.055Z,86.18
2022-08-20T02:12:11.058Z,88.94
2022-08-20T02:13:10.109Z,86.77
2022-08-20T02:14:09.774Z,85.86
2022-08-20T02:15:10.611Z,86.76
2022-08-20T02:16:08.651Z,88.66
2022-08-20T02:17:07.039Z,91.11
2022-08-20T02:18:08.167Z,87.97
2022-08-20T02:19:15.236Z,87.64
2022-08-20T02:20:17.575Z,86.39
2022-08-20T02:21:14.394Z,90.86
2022-08-20T02:22:36.694Z,88.87
2022-08-20T02:23:34.253Z,88.31
2022-08-20T02:24:31.146Z,87.61
2022-08-20T02:25:33.113Z,92.57
2022-08-20T02:26:31.192Z,89.81
2022-08-20T02:27:28.050Z,90.51
2022-08-20T02:28:24.770Z,89.19
2022-08-20T02:29:21.533Z,89.92
2022-08-20T02:30:28.685Z,90.14
2022-08-20T02:31:25.784Z,91.50
2022-08-20T02:32:32.473Z,92.62
2022-08-20T02:33:30.484Z,92.96
2022-08-20T02:34:27.219Z,92.71
2022-08-20T02:35:24.397Z,90.75
2022-08-20T02:36:21.251Z,89.55
2022-08-20T02:37:19.251Z,88.88
2022-08-20T02:38:16.609Z,85.41
2022-08-20T02:39:13.586Z,88.79
2022-08-20T02:40:17.344Z,93.18
2022-08-20T02:41:24.435Z,92.56
2022-08-20T02:42:21.377Z,91.30
2022-08-20T02:43:20.222Z,90.67
2022-08-20T02:44:20.508Z,87.82
2022-08-20T02:45:19.156Z,89.68
2022-08-20T02:46:16.502Z,92.46
2022-08-20T02:47:13.875Z,90.27
2022-08-20T02:48:18.558Z,91.85
2022-08-20T02:49:17.250Z,94.00
2022-08-20T02:50:18.945Z,97.04
2022-08-20T02:51:15.761Z,93.98
2022-08-20T02:52:12.627Z,93.23
2022-08-20T02:53:09.436Z,93.55
2022-08-20T02:54:06.205Z,91.88
2022-08-20T02:55:04.177Z,88.45
2022-08-20T02:56:01.044Z,91.97
2022-08-20T02:56:57.790Z,93.27
2022-08-20T02:57:59.729Z,94.98
2022-08-20T02:58:56.549Z,96.71
2022-08-20T02:59:53.379Z,97.55
2022-08-20T03:00:51.099Z,97.51
2022-08-20T03:01:59.122Z,93.89
2022-08-20T03:02:57.518Z,91.48
2022-08-20T03:03:57.095Z,94.22
2022-08-20T03:04:53.961Z,94.68
2022-08-20T03:05:58.883Z,95.81
2022-08-20T03:06:56.202Z,98.28
2022-08-20T03:07:53.951Z,98.57
2022-08-20T03:08:51.159Z,98.58
2022-08-20T03:09:47.871Z,100.00
2022-08-20T03:10:46.995Z,100.00
2022-08-20T03:11:43.790Z,99.55
2022-08-20T03:12:41.742Z,100.00
2022-08-20T03:13:38.708Z,96.65
2022-08-20T03:14:37.356Z,96.14
2022-08-20T03:15:34.688Z,100.00
2022-08-20T03:16:31.435Z,96.20
2022-08-20T03:17:28.245Z,94.16
2022-08-20T03:18:28.825Z,93.49
2022-08-20T03:19:25.786Z,91.93
2022-08-20T03:20:23.975Z,93.07
2022-08-20T03:21:21.226Z,94.97
2022-08-20T03:22:17.969Z,94.34
2022-08-20T03:23:18.131Z,95.37
2022-08-20T03:24:15.429Z,95.82
2022-08-20T03:25:12.641Z,95.14
2022-08-20T03:26:12.340Z,94.10
2022-08-20T03:27:09.222Z,98.56
2022-08-20T03:28:06.340Z,100.00
2022-08-20T03:29:03.709Z,100.00
2022-08-20T03:30:00.491Z,98.83
2022-08-20T03:30:59.417Z,97.97
2022-08-20T03:31:56.151Z,100.00
2022-08-20T03:32:53.436Z,100.00
2022-08-20T03:33:53.173Z,97.62
2022-08-20T03:34:50.740Z,95.83
2022-08-20T03:35:48.188Z,96.27
2022-08-20T03:36:45.248Z,94.10
2022-08-20T03:37:48.924Z,94.01
2022-08-20T03:38:45.935Z,94.60
2022-08-20T03:39:42.757Z,91.94
2022-08-20T03:40:39.969Z,92.11
2022-08-20T03:41:36.751Z,91.35
2022-08-20T03:42:33.873Z,92.48
2022-08-20T03:43:31.045Z,96.81
2022-08-20T03:44:27.926Z,94.96
2022-08-20T03:45:26.678Z,97.34
2022-08-20T03:46:24.159Z,100.00
2022-08-20T03:47:21.129Z,100.00
2022-08-20T03:48:20.398Z,100.00
2022-08-20T03:49:17.246Z,100.00
2022-08-20T03:50:14.630Z,97.61
2022-08-20T03:51:19.618Z,100.00
2022-08-20T03:52:17.579Z,100.00
2022-08-20T03:53:15.955Z,98.30
2022-08-20T03:54:12.953Z,93.41
2022-08-20T03:55:10.451Z,95.11
2022-08-20T03:56:07.338Z,96.70
2022-08-20T03:57:12.384Z,95.74
2022-08-20T03:58:10.676Z,98.23
2022-08-20T03:59:08.280Z,97.20
2022-08-20T04:00:06.442Z,95.80
2022-08-20T04:01:07.094Z,94.43
2022-08-20T04:02:04.225Z,93.76
2022-08-20T04:03:01.646Z,93.34
2022-08-20T04:03:58.728Z,93.42
2022-08-20T04:04:55.501Z,91.46
2022-08-20T04:05:52.851Z,94.20
2022-08-20T04:06:49.641Z,100.00
2022-08-20T04:07:46.486Z,99.14
2022-08-20T04:08:43.241Z,95.98
2022-08-20T04:09:40.325Z,95.12
2022-08-20T04:10:38.374Z,93.25
2022-08-20T04:11:35.157Z,95.68
2022-08-20T04:12:31.895Z,99.31
2022-08-20T04:13:31.211Z,97.00
2022-08-20T04:14:29.310Z,97.88
2022-08-20T04:15:27.937Z,94.16
2022-08-20T04:16:24.688Z,92.89
2022-08-20T04:17:22.636Z,91.85
2022-08-20T04:18:24.141Z,94.70
2022-08-20T04:19:21.632Z,95.66
2022-08-20T04:20:23.373Z,94.19
2022-08-20T04:21:20.093Z,92.31
2022-08-20T04:22:16.818Z,94.86
2022-08-20T04:23:16.943Z,94.77
2022-08-20T04:24:21.942Z,95.05
2022-08-20T04:25:36.061Z,93.04
2022-08-20T04:26:36.367Z,91.47
2022-08-20T04:27:33.164Z,90.35
2022-08-20T04:28:30.161Z,91.45
2022-08-20T04:29:32.410Z,90.36
2022-08-20T04:30:30.554Z,91.00
2022-08-20T04:31:33.141Z,88.87
2022-08-20T04:32:30.631Z,88.27
2022-08-20T04:33:34.016Z,89.47
2022-08-20T04:34:33.281Z,92.07
2022-08-20T04:35:31.315Z,90.24
2022-08-20T04:36:28.201Z,88.92
2022-08-20T04:37:24.951Z,88.33
2022-08-20T04:38:23.034Z,86.95
2022-08-20T04:39:19.797Z,87.71
2022-08-20T04:40:37.884Z,88.04
2022-08-20T04:41:34.610Z,88.13
2022-08-20T04:42:31.481Z,88.83
2022-08-20T04:43:33.501Z,88.56
2022-08-20T04:44:30.275Z,88.14
2022-08-20T04:45:27.676Z,87.79
2022-08-20T04:46:28.552Z,87.57
2022-08-20T04:47:34.718Z,87.66
2022-08-20T04:48:33.095Z,88.11
2022-08-20T04:49:30.592Z,86.63
2022-08-20T04:50:27.358Z,85.53
2022-08-20T04:51:24.775Z,85.24
2022-08-20T04:52:21.562Z,84.31
2022-08-20T04:53:25.842Z,84.19
2022-08-20T04:54:22.824Z,85.18
2022-08-20T04:55:20.236Z,84.26
2022-08-20T04:56:18.371Z,84.54
2022-08-20T04:57:15.205Z,84.51
2022-08-20T04:58:47.777Z,83.89
2022-08-20T04:59:45.306Z,83.90
2022-08-20T05:00:46.189Z,85.30
2022-08-20T05:01:42.975Z,87.50
2022-08-20T05:02:39.923Z,88.88
2022-08-20T05:03:39.476Z,87.94
2022-08-20T05:04:37.688Z,87.41
2022-08-20T05:05:35.330Z,87.01
2022-08-20T05:06:32.417Z,88.46
2022-08-20T05:07:29.186Z,88.91
2022-08-20T05:08:26.627Z,87.55
2022-08-20T05:09:23.330Z,86.82
2022-08-20T05:10:20.153Z,89.26
2022-08-20T05:11:33.970Z,89.96
2022-08-20T05:12:33.186Z,88.45
2022-08-20T05:13:30.013Z,86.80
2022-08-20T05:14:26.783Z,84.80
2022-08-20T05:15:24.577Z,82.93
2022-08-20T05:16:22.421Z,81.88
2022-08-20T05:17:19.169Z,82.91
2022-08-20T05:18:22.042Z,84.42
2022-08-20T05:19:18.811Z,84.47
2022-08-20T05:20:18.170Z,83.75
2022-08-20T05:21:15.631Z,83.85
2022-08-20T05:22:12.448Z,84.30
2022-08-20T05:23:12.283Z,85.23
2022-08-20T05:24:10.479Z,85.01
2022-08-20T05:25:07.572Z,83.75
2022-08-20T05:26:07.611Z,83.56
2022-08-20T05:27:04.536Z,84.76
2022-08-20T05:28:09.377Z,86.15
2022-08-20T05:29:07.022Z,87.88
2022-08-20T05:30:11.784Z,89.35
2022-08-20T05:31:10.505Z,90.68
2022-08-20T05:32:07.344Z,90.86
2022-08-20T05:33:05.821Z,90.62
2022-08-20T05:34:12.358Z,90.08
2022-08-20T05:35:10.329Z,91.62
2022-08-20T05:36:07.957Z,91.78
2022-08-20T05:37:04.850Z,91.46
2022-08-20T05:38:06.822Z,91.18
2022-08-20T05:39:03.707Z,93.32
2022-08-20T05:40:00.615Z,93.94
2022-08-20T05:40:59.511Z,91.60
2022-08-20T05:41:56.774Z,88.99
2022-08-20T05:42:54.770Z,87.55
2022-08-20T05:43:51.672Z,91.36
2022-08-20T05:44:48.581Z,89.36
2022-08-20T05:45:54.682Z,90.88
2022-08-20T05:46:53.361Z,90.97
2022-08-20T05:47:56.423Z,92.52
2022-08-20T05:48:53.470Z,92.13
2022-08-20T05:49:50.183Z,92.68
2022-08-20T05:50:51.979Z,89.50
2022-08-20T05:51:50.987Z,89.23
2022-08-20T05:52:47.734Z,88.46
2022-08-20T05:53:44.578Z,88.39
2022-08-20T05:54:41.518Z,88.05
2022-08-20T05:55:39.895Z,90.76
2022-08-20T05:56:37.233Z,91.82
2022-08-20T05:57:34.515Z,92.19
2022-08-20T05:58:32.882Z,92.29
2022-08-20T05:59:29.763Z,91.62
2022-08-20T06:00:27.070Z,89.04
2022-08-20T06:01:23.882Z,89.33
2022-08-20T06:02:39.186Z,89.43
2022-08-20T06:03:54.689Z,89.57
2022-08-20T06:04:56.275Z,88.96
2022-08-20T06:05:53.178Z,92.25
2022-08-20T06:06:51.743Z,90.58
2022-08-20T06:07:50.672Z,89.88
2022-08-20T06:08:51.566Z,89.98
2022-08-20T06:09:49.938Z,89.02
2022-08-20T06:10:47.409Z,87.53
2022-08-20T06:11:44.169Z,85.66
2022-08-20T06:12:40.902Z,85.35
2022-08-20T06:13:37.615Z,84.10
2022-08-20T06:14:34.462Z,87.45
2022-08-20T06:15:32.780Z,84.89
2022-08-20T06:16:32.496Z,84.91
2022-08-20T06:17:34.859Z,86.56
2022-08-20T06:18:36.429Z,84.66
2022-08-20T06:19:34.116Z,85.06
2022-08-20T06:20:30.939Z,85.67
2022-08-20T06:21:27.721Z,85.99
2022-08-20T06:22:27.617Z,86.85
2022-08-20T06:23:25.362Z,85.95
2022-08-20T06:24:22.352Z,84.94
2022-08-20T06:25:19.459Z,82.89
2022-08-20T06:26:16.218Z,83.81
2022-08-20T06:27:22.468Z,83.96
2022-08-20T06:28:19.214Z,83.09
2022-08-20T06:29:16.035Z,82.32
2022-08-20T06:30:15.752Z,82.46
2022-08-20T06:31:12.575Z,80.25
2022-08-20T06:32:09.359Z,81.15
2022-08-20T06:33:06.403Z,79.73
2022-08-20T06:34:03.151Z,79.73
2022-08-20T06:35:05.956Z,77.26
2022-08-20T06:36:22.245Z,78.23
2022-08-20T06:37:40.394Z,75.48
2022-08-20T06:38:56.241Z,76.90
2022-08-20T06:40:24.419Z,78.42
2022-08-20T06:41:39.757Z,77.99
2022-08-20T06:42:48.248Z,77.03
2022-08-20T06:43:46.563Z,76.22
2022-08-20T06:44:43.297Z,75.86
2022-08-20T06:45:40.546Z,80.67
2022-08-20T06:46:38.650Z,78.49
2022-08-20T06:47:35.415Z,78.52
2022-08-20T06:48:32.193Z,74.35
2022-08-20T06:49:35.313Z,74.91
2022-08-20T06:50:43.167Z,76.19
2022-08-20T06:51:45.152Z,70.89
2022-08-20T06:52:52.108Z,70.22
2022-08-20T06:53:49.875Z,70.29
2022-08-20T06:54:46.807Z,70.62
2022-08-20T06:55:48.942Z,69.71
2022-08-20T06:56:45.783Z,68.77
2022-08-20T06:57:43.507Z,68.73
2022-08-20T06:58:40.271Z,70.16
2022-08-20T06:59:37.107Z,68.92
2022-08-20T07:00:36.229Z,67.32
2022-08-20T07:01:33.194Z,68.52
2022-08-20T07:02:30.300Z,68.72
2022-08-20T07:03:27.696Z,67.95
2022-08-20T07:04:26.093Z,68.46
2022-08-20T07:05:22.834Z,68.93
2022-08-20T07:06:19.707Z,67.82
2022-08-20T07:07:18.494Z,66.77
2022-08-20T07:08:18.768Z,66.20
2022-08-20T07:09:15.521Z,67.00
2022-08-20T07:10:14.737Z,67.67
2022-08-20T07:11:12.218Z,67.04
2022-08-20T07:12:10.625Z,66.16
2022-08-20T07:13:07.554Z,66.16
2022-08-20T07:14:05.485Z,65.81
2022-08-20T07:15:11.596Z,66.05
2022-08-20T07:16:08.741Z,66.02
2022-08-20T07:17:06.789Z,64.95
2022-08-20T07:18:11.108Z,65.33
2022-08-20T07:19:08.453Z,66.19
2022-08-20T07:20:08.360Z,65.86
2022-08-20T07:21:05.307Z,64.84
2022-08-20T07:22:02.211Z,64.59
2022-08-20T07:23:01.986Z,63.96
2022-08-20T07:23:58.718Z,63.41
2022-08-20T07:24:55.560Z,63.77
2022-08-20T07:25:53.470Z,63.57
2022-08-20T07:26:52.084Z,62.54
2022-08-20T07:27:53.646Z,62.07
2022-08-20T07:28:50.542Z,62.63
2022-08-20T07:30:09.020Z,61.85
2022-08-20T07:31:28.279Z,61.79
2022-08-20T07:32:39.425Z,62.58
2022-08-20T07:33:38.441Z,61.79
2022-08-20T07:34:36.406Z,62.07
2022-08-20T07:35:33.832Z,60.91
2022-08-20T07:36:32.034Z,60.75
2022-08-20T07:37:28.812Z,60.58
2022-08-20T07:38:28.134Z,60.31
2022-08-20T07:39:24.858Z,59.61
2022-08-20T07:40:30.354Z,59.82
2022-08-20T07:41:27.658Z,59.59
2022-08-20T07:42:24.522Z,58.71
2022-08-20T07:43:24.950Z,58.86
2022-08-20T07:44:22.759Z,59.20
2022-08-20T07:45:32.116Z,58.14
2022-08-20T07:46:31.258Z,58.39
2022-08-20T07:47:28.338Z,58.78
2022-08-20T07:48:31.177Z,58.58
2022-08-20T07:49:28.552Z,58.56
2022-08-20T07:50:27.683Z,59.28
2022-08-20T07:51:24.410Z,58.81
2022-08-20T07:52:21.750Z,58.85
2022-08-20T07:53:18.814Z,58.92
2022-08-20T07:54:15.653Z,58.23
2022-08-20T07:55:16.452Z,57.42
2022-08-20T07:56:24.257Z,56.80
2022-08-20T07:57:21.246Z,57.35
2022-08-20T07:58:20.686Z,57.32
2022-08-20T07:59:23.930Z,57.78
2022-08-20T08:00:23.032Z,57.23
2022-08-20T08:01:25.944Z,56.65
2022-08-20T08:02:22.858Z,57.11
2022-08-20T08:03:19.765Z,57.15
2022-08-20T08:04:37.187Z,56.43
2022-08-20T08:05:38.361Z,55.89
2022-08-20T08:06:35.307Z,55.67
2022-08-20T08:07:33.978Z,55.62
2022-08-20T08:08:33.829Z,55.46
2022-08-20T08:09:34.352Z,54.88
2022-08-20T08:10:31.140Z,54.26
2022-08-20T08:11:27.945Z,54.16
2022-08-20T08:12:36.350Z,54.41
2022-08-20T08:13:40.178Z,54.16
2022-08-20T08:14:37.168Z,53.78
2022-08-20T08:15:40.809Z,53.75
2022-08-20T08:16:39.243Z,53.24
2022-08-20T08:17:37.629Z,53.87
2022-08-20T08:18:41.992Z,54.78
2022-08-20T08:19:49.939Z,54.79
2022-08-20T08:20:47.152Z,54.73
2022-08-20T08:21:44.788Z,54.24
2022-08-20T08:22:43.023Z,54.57
2022-08-20T08:23:45.769Z,54.68
2022-08-20T08:24:56.712Z,54.48
2022-08-20T08:25:54.387Z,54.08
2022-08-20T08:26:51.998Z,53.81
2022-08-20T08:27:48.844Z,54.57
2022-08-20T08:28:45.827Z,53.80
2022-08-20T08:29:43.393Z,54.36
2022-08-20T08:30:42.358Z,53.34
2022-08-20T08:31:40.984Z,53.22
2022-08-20T08:32:37.939Z,52.96
2022-08-20T08:33:40.389Z,53.12
2022-08-20T08:35:02.990Z,53.24
2022-08-20T08:36:03.615Z,53.90
2022-08-20T08:37:02.329Z,53.87
2022-08-20T08:38:00.860Z,54.43
2022-08-20T08:38:57.615Z,54.18
2022-08-20T08:39:54.625Z,53.89
2022-08-20T08:40:59.145Z,53.53
2022-08-20T08:42:00.680Z,54.08
2022-08-20T08:43:03.069Z,53.45
2022-08-20T08:44:23.707Z,53.00
2022-08-20T08:45:20.596Z,53.84
2022-08-20T08:46:22.627Z,53.20
2022-08-20T08:47:30.440Z,53.14
2022-08-20T08:48:48.662Z,52.81
2022-08-20T08:49:47.727Z,52.68
2022-08-20T08:50:53.650Z,53.01
2022-08-20T08:52:07.089Z,52.99
2022-08-20T08:53:05.988Z,52.88
2022-08-20T08:54:12.873Z,52.96
2022-08-20T08:55:20.428Z,52.92
2022-08-20T08:56:18.420Z,53.76
2022-08-20T08:57:16.712Z,53.06
2022-08-20T08:58:17.195Z,52.91
2022-08-20T08:59:14.201Z,52.60
2022-08-20T09:00:21.596Z,52.37
2022-08-20T09:01:55.097Z,52.48
2022-08-20T09:02:39.619Z,52.30
2022-08-20T09:03:40.058Z,51.83
2022-08-20T09:04:41.059Z,51.41
2022-08-20T09:05:59.823Z,51.90
2022-08-20T09:06:56.717Z,51.80
2022-08-20T09:07:54.334Z,52.00
2022-08-20T09:08:56.982Z,52.60
2022-08-20T09:09:53.965Z,52.50
2022-08-20T09:10:51.899Z,51.80
2022-08-20T09:11:53.245Z,52.81
2022-08-20T09:12:50.187Z,51.96
2022-08-20T09:13:49.485Z,51.57
2022-08-20T09:14:48.627Z,52.16
2022-08-20T09:15:46.014Z,51.87
2022-08-20T09:16:51.995Z,52.24
2022-08-20T09:17:49.655Z,51.09
2022-08-20T09:18:46.463Z,50.99
2022-08-20T09:19:43.310Z,50.63
2022-08-20T09:20:40.101Z,50.34
2022-08-20T09:21:36.997Z,50.06
2022-08-20T09:22:33.892Z,50.17
2022-08-20T09:23:30.769Z,49.82
2022-08-20T09:24:27.538Z,50.05
2022-08-20T09:25:24.840Z,49.80
2022-08-20T09:26:21.788Z,49.88
2022-08-20T09:27:22.522Z,50.10
2022-08-20T09:28:19.294Z,50.43
2022-08-20T09:29:16.140Z,50.62
2022-08-20T09:30:15.321Z,50.53
2022-08-20T09:31:12.145Z,51.25
2022-08-20T09:32:21.013Z,50.35
2022-08-20T09:33:18.099Z,50.40
2022-08-20T09:34:14.984Z,50.29
2022-08-20T09:35:13.326Z,49.12
2022-08-20T09:36:29.139Z,49.55
2022-08-20T09:37:36.769Z,49.31
2022-08-20T09:38:34.581Z,48.39
2022-08-20T09:39:31.609Z,48.75
2022-08-20T09:40:28.391Z,48.38
2022-08-20T09:41:25.726Z,48.77
2022-08-20T09:42:31.728Z,49.75
2022-08-20T09:43:28.790Z,49.90
2022-08-20T09:44:25.519Z,49.69
2022-08-20T09:45:22.547Z,49.31
2022-08-20T09:46:19.346Z,48.65
2022-08-20T09:47:23.963Z,49.35
2022-08-20T09:48:20.667Z,49.59
2022-08-20T09:49:26.426Z,48.60
2022-08-20T09:50:24.149Z,49.49
2022-08-20T09:51:21.903Z,49.52
2022-08-20T09:52:26.258Z,49.09
2022-08-20T09:53:23.422Z,49.25
2022-08-20T09:54:22.359Z,47.76
2022-08-20T09:55:26.440Z,48.73
2022-08-20T09:56:23.331Z,47.85
2022-08-20T09:57:20.444Z,47.96
2022-08-20T09:58:17.099Z,47.63
2022-08-20T09:59:16.146Z,47.14
2022-08-20T10:00:13.371Z,47.44
2022-08-20T10:01:17.051Z,47.17
2022-08-20T10:02:13.876Z,47.41
2022-08-20T10:03:10.605Z,47.40
2022-08-20T10:04:08.070Z,46.56
2022-08-20T10:05:05.210Z,46.61
2022-08-20T10:06:02.785Z,47.08
2022-08-20T10:06:59.728Z,47.09
2022-08-20T10:07:56.680Z,46.44
2022-08-20T10:08:53.502Z,47.29
2022-08-20T10:09:50.298Z,46.45
2022-08-20T10:10:47.050Z,46.35
2022-08-20T10:11:43.798Z,45.92
2022-08-20T10:12:43.859Z,45.56
2022-08-20T10:13:40.735Z,45.68
2022-08-20T10:14:37.521Z,45.78
2022-08-20T10:15:34.272Z,45.47
2022-08-20T10:16:32.049Z,45.47
2022-08-20T10:17:28.867Z,45.29
2022-08-20T10:18:25.648Z,45.78
2022-08-20T10:19:22.442Z,45.11
2022-08-20T10:20:21.205Z,44.30
2022-08-20T10:21:17.947Z,44.25
2022-08-20T10:22:14.852Z,44.20
2022-08-20T10:23:12.004Z,44.52
2022-08-20T10:24:08.853Z,44.63
2022-08-20T10:25:06.989Z,44.78
2022-08-20T10:26:04.399Z,44.58
2022-08-20T10:27:02.062Z,44.66
2022-08-20T10:27:59.424Z,44.84
2022-08-20T10:28:56.139Z,45.07
2022-08-20T10:29:52.897Z,44.73
2022-08-20T10:30:49.601Z,44.56
2022-08-20T10:31:46.391Z,44.19
2022-08-20T10:32:43.134Z,43.95
2022-08-20T10:33:41.316Z,43.85
2022-08-20T10:34:40.210Z,43.10
2022-08-20T10:35:37.116Z,43.65
2022-08-20T10:36:33.898Z,43.68
2022-08-20T10:37:30.882Z,43.46
2022-08-20T10:38:27.646Z,43.89
2022-08-20T10:39:24.469Z,43.36
2022-08-20T10:40:21.606Z,43.32
2022-08-20T10:41:19.853Z,43.46
2022-08-20T10:42:16.638Z,43.24
2022-08-20T10:43:13.476Z,42.87
2022-08-20T10:44:13.230Z,44.13
2022-08-20T10:45:15.940Z,43.13
2022-08-20T10:46:12.973Z,43.04
2022-08-20T10:47:28.835Z,42.83
2022-08-20T10:48:26.413Z,41.30
2022-08-20T10:49:23.383Z,41.98
2022-08-20T10:50:20.617Z,41.60
2022-08-20T10:51:17.758Z,41.57
2022-08-20T10:52:14.526Z,41.34
2022-08-20T10:53:11.410Z,41.47
2022-08-20T10:54:12.652Z,41.25
2022-08-20T10:55:11.009Z,41.05
2022-08-20T10:56:07.806Z,40.70
2022-08-20T10:57:04.747Z,40.88
2022-08-20T10:58:01.494Z,40.71
2022-08-20T10:58:58.185Z,41.87
2022-08-20T10:59:57.055Z,41.14
2022-08-20T11:00:56.067Z,41.77
2022-08-20T11:02:01.650Z,41.63
2022-08-20T11:02:58.507Z,41.47
2022-08-20T11:03:55.370Z,41.21
2022-08-20T11:04:53.333Z,42.04
2022-08-20T11:05:50.094Z,41.98
2022-08-20T11:06:46.899Z,41.76
2022-08-20T11:07:50.548Z,41.72
2022-08-20T11:08:53.275Z,41.86
2022-08-20T11:09:54.317Z,42.60
2022-08-20T11:10:52.202Z,42.88
2022-08-20T11:11:48.962Z,42.60
2022-08-20T11:12:46.421Z,41.53
2022-08-20T11:13:43.385Z,42.27
2022-08-20T11:14:40.760Z,42.62
2022-08-20T11:15:42.101Z,42.33
2022-08-20T11:16:38.881Z,42.58
2022-08-20T11:17:39.718Z,42.38
2022-08-20T11:18:36.444Z,42.40
2022-08-20T11:19:38.137Z,41.63
2022-08-20T11:20:36.757Z,42.35
2022-08-20T11:21:33.475Z,41.93
2022-08-20T11:22:30.215Z,41.74
2022-08-20T11:23:28.000Z,41.18
2022-08-20T11:24:27.297Z,41.67
2022-08-20T11:25:25.925Z,42.33
2022-08-20T11:26:25.507Z,42.14
2022-08-20T11:27:26.411Z,41.71
2022-08-20T11:28:31.962Z,41.16
2022-08-20T11:29:33.395Z,41.16
2022-08-20T11:30:34.180Z,40.38
2022-08-20T11:31:31.014Z,41.54
2022-08-20T11:32:27.948Z,41.44
2022-08-20T11:33:24.761Z,41.79
2022-08-20T11:34:21.493Z,41.83
2022-08-20T11:35:41.542Z,40.90
2022-08-20T11:36:37.887Z,41.25
2022-08-20T11:37:34.839Z,41.00
2022-08-20T11:38:31.882Z,41.42
2022-08-20T11:39:28.662Z,41.35
2022-08-20T11:40:26.768Z,41.11
2022-08-20T11:41:23.749Z,40.71
2022-08-20T11:42:20.963Z,41.18
2022-08-20T11:43:18.283Z,40.51
2022-08-20T11:44:20.682Z,40.88
2022-08-20T11:45:18.315Z,40.71
2022-08-20T11:46:15.603Z,40.48
2022-08-20T11:47:25.415Z,40.26
2022-08-20T11:48:22.969Z,40.62
2022-08-20T11:49:19.736Z,40.80
2022-08-20T11:50:20.291Z,40.20
2022-08-20T11:51:17.415Z,40.23
2022-08-20T11:52:14.153Z,39.92
2022-08-20T11:53:12.374Z,40.02
2022-08-20T11:54:09.194Z,40.61
2022-08-20T11:55:11.768Z,40.51
2022-08-20T11:56:08.648Z,40.27
2022-08-20T11:57:10.162Z,40.40
2022-08-20T11:58:07.099Z,39.82
2022-08-20T11:59:03.858Z,40.08
2022-08-20T12:00:04.933Z,40.04
2022-08-20T12:01:01.701Z,40.50
2022-08-20T12:02:02.828Z,39.96
2022-08-20T12:03:05.374Z,40.16
2022-08-20T12:04:02.586Z,40.14
2022-08-20T12:04:59.338Z,40.24
2022-08-20T12:05:57.865Z,40.24
2022-08-20T12:06:54.611Z,40.95
2022-08-20T12:07:52.306Z,40.85
2022-08-20T12:08:49.247Z,40.88
2022-08-20T12:09:51.120Z,40.92
2022-08-20T12:10:48.167Z,40.92
2022-08-20T12:11:46.146Z,40.61
2022-08-20T12:12:43.013Z,40.84
2022-08-20T12:13:48.147Z,41.14
2022-08-20T12:14:46.061Z,40.86
2022-08-20T12:15:43.902Z,41.21
2022-08-20T12:16:40.708Z,41.37
2022-08-20T12:17:38.460Z,41.60
2022-08-20T12:18:35.374Z,41.33
2022-08-20T12:19:32.213Z,41.60
2022-08-20T12:20:28.984Z,41.20
2022-08-20T12:21:28.672Z,41.14
2022-08-20T12:22:27.829Z,41.38
2022-08-20T12:23:24.702Z,41.53
2022-08-20T12:24:21.512Z,41.38
2022-08-20T12:25:18.599Z,41.45
2022-08-20T12:26:16.734Z,41.77
2022-08-20T12:27:16.456Z,41.39
2022-08-20T12:28:15.267Z,41.57
2022-08-20T12:29:12.231Z,41.43
2022-08-20T12:30:15.126Z,41.57
2022-08-20T12:31:11.854Z,41.74
2022-08-20T12:32:09.343Z,41.84
2022-08-20T12:33:06.270Z,41.33
2022-08-20T12:34:03.004Z,41.92
2022-08-20T12:34:59.950Z,41.78
2022-08-20T12:35:57.390Z,41.33
2022-08-20T12:37:09.376Z,41.42
2022-08-20T12:38:08.530Z,40.90
2022-08-20T12:39:05.267Z,41.34
2022-08-20T12:40:05.470Z,40.77
2022-08-20T12:41:02.605Z,41.11
2022-08-20T12:42:03.080Z,41.41
2022-08-20T12:43:01.621Z,40.98
2022-08-20T12:43:58.338Z,41.02
2022-08-20T12:44:55.097Z,41.39
2022-08-20T12:45:52.133Z,41.18
2022-08-20T12:46:49.780Z,41.61
2022-08-20T12:47:48.259Z,41.87
2022-08-20T12:48:44.990Z,41.64
2022-08-20T12:49:47.843Z,41.76
2022-08-20T12:50:46.185Z,42.53